createdAt,value
2022-11-28T00:01:52.069Z,9.90
2022-11-28T00:04:21.068Z,9.30
2022-11-28T00:06:51.407Z,9.23
2022-11-28T00:09:22.273Z,8.60
2022-11-28T00:11:50.930Z,9.43
2022-11-28T00:14:20.885Z,9.13
2022-11-28T00:16:47.966Z,9.57
2022-11-28T00:19:18.070Z,9.00
2022-11-28T00:21:48.117Z,9.10
2022-11-28T00:24:16.372Z,8.60
2022-11-28T00:26:44.611Z,9.30
2022-11-28T00:29:17.618Z,8.90
2022-11-28T00:31:47.585Z,8.47
2022-11-28T00:34:16.202Z,8.47
2022-11-28T00:36:45.660Z,7.83
2022-11-28T00:39:16.639Z,8.47
2022-11-28T00:41:45.095Z,8.43
2022-11-28T00:44:14.485Z,7.47
2022-11-28T00:46:44.538Z,7.80
2022-11-28T00:49:14.534Z,7.20
2022-11-28T00:51:44.567Z,7.53
2022-11-28T00:54:14.518Z,7.73
2022-11-28T00:56:44.401Z,7.37
2022-11-28T00:59:12.353Z,7.10
2022-11-28T01:01:43.983Z,7.40
2022-11-28T01:04:17.574Z,6.40
2022-11-28T01:06:49.605Z,6.83
2022-11-28T01:09:20.890Z,6.67
2022-11-28T01:11:49.282Z,6.93
2022-11-28T01:14:20.123Z,5.73
2022-11-28T01:16:50.204Z,5.90
2022-11-28T01:19:21.308Z,6.60
2022-11-28T01:21:49.585Z,7.80
2022-11-28T01:24:19.661Z,8.40
2022-11-28T01:26:49.676Z,7.60
2022-11-28T01:29:19.694Z,8.03
2022-11-28T01:31:46.767Z,7.43
2022-11-28T01:34:14.695Z,6.53
2022-11-28T01:36:41.668Z,6.50
2022-11-28T01:39:12.328Z,6.40
2022-11-28T01:41:40.610Z,6.27
2022-11-28T01:44:13.511Z,6.27
2022-11-28T01:46:42.018Z,6.80
2022-11-28T01:49:26.199Z,7.03
2022-11-28T01:51:58.525Z,7.77
2022-11-28T01:54:30.749Z,7.37
2022-11-28T01:57:01.809Z,8.17
2022-11-28T01:59:37.478Z,7.10
2022-11-28T02:02:14.817Z,8.57
2022-11-28T02:04:45.791Z,7.90
2022-11-28T02:07:16.022Z,8.87
2022-11-28T02:09:42.955Z,9.13
2022-11-28T02:12:44.983Z,8.60
2022-11-28T02:15:28.773Z,8.57
2022-11-28T02:18:18.310Z,9.10
2022-11-28T02:20:45.145Z,10.23
2022-11-28T02:23:14.409Z,9.33
2022-11-28T02:25:50.285Z,12.23
2022-11-28T02:28:56.331Z,11.80
2022-11-28T02:31:50.796Z,13.43
2022-11-28T02:34:29.977Z,13.87
2022-11-28T02:37:06.474Z,16.47
2022-11-28T02:40:06.509Z,16.20
2022-11-28T02:43:11.998Z,17.33
2022-11-28T02:45:58.329Z,17.70
2022-11-28T02:48:44.215Z,20.07
2022-11-28T02:51:33.690Z,19.77
2022-11-28T02:54:02.848Z,23.07
2022-11-28T02:56:29.937Z,25.67
2022-11-28T02:58:57.068Z,25.07
2022-11-28T03:01:34.508Z,29.70
2022-11-28T03:04:13.427Z,31.27
2022-11-28T03:06:48.772Z,41.37
2022-11-28T03:09:42.402Z,34.47
2022-11-28T03:12:29.630Z,34.23
2022-11-28T03:14:57.753Z,33.93
2022-11-28T03:17:38.133Z,33.37
2022-11-28T03:20:23.352Z,37.87
2022-11-28T03:23:01.054Z,34.03
2022-11-28T03:25:41.716Z,40.30
2022-11-28T03:28:19.903Z,35.70
2022-11-28T03:30:58.746Z,32.23
2022-11-28T03:33:30.723Z,37.53
2022-11-28T03:36:09.191Z,37.80
2022-11-28T03:38:44.269Z,36.77
2022-11-28T03:41:19.647Z,35.40
2022-11-28T03:43:56.664Z,30.60
2022-11-28T03:46:35.258Z,30.00
2022-11-28T03:49:07.203Z,29.23
2022-11-28T03:51:41.866Z,30.43
2022-11-28T03:54:33.755Z,28.53
2022-11-28T03:57:18.161Z,26.73
2022-11-28T03:59:50.427Z,27.03
2022-11-28T04:02:34.815Z,20.67
2022-11-28T04:05:24.179Z,17.10
2022-11-28T04:07:56.585Z,17.40
2022-11-28T04:10:43.299Z,16.63
2022-11-28T04:13:26.268Z,16.97
2022-11-28T04:16:28.960Z,17.47
2022-11-28T04:19:03.498Z,16.47
2022-11-28T04:21:45.888Z,13.93
2022-11-28T04:24:21.797Z,14.27
2022-11-28T04:26:55.603Z,15.87
2022-11-28T04:29:24.466Z,15.80
2022-11-28T04:31:55.918Z,16.87
2022-11-28T04:34:26.815Z,14.87
2022-11-28T04:36:58.026Z,14.40
2022-11-28T04:39:30.361Z,14.43
2022-11-28T04:42:18.264Z,13.10
2022-11-28T04:45:15.530Z,12.97
2022-11-28T04:47:45.176Z,13.10
2022-11-28T04:50:13.611Z,14.30
2022-11-28T04:53:09.778Z,16.47
2022-11-28T04:55:52.210Z,15.20
2022-11-28T04:58:26.053Z,17.40
2022-11-28T05:00:57.613Z,17.97
2022-11-28T05:03:31.175Z,17.33
2022-11-28T05:05:58.134Z,20.43
2022-11-28T05:08:28.205Z,15.90
2022-11-28T05:10:59.158Z,19.23
2022-11-28T05:13:29.029Z,14.93
2022-11-28T05:16:00.830Z,15.10
2022-11-28T05:18:29.720Z,15.23
2022-11-28T05:21:01.866Z,14.70
2022-11-28T05:23:29.751Z,15.00
2022-11-28T05:25:56.699Z,16.03
2022-11-28T05:28:24.938Z,15.33
2022-11-28T05:31:10.178Z,15.53
2022-11-28T05:33:39.126Z,14.07
2022-11-28T05:36:12.918Z,16.73
2022-11-28T05:38:43.237Z,14.57
2022-11-28T05:41:23.322Z,14.40
2022-11-28T05:43:51.132Z,14.30
2022-11-28T05:46:18.901Z,15.27
2022-11-28T05:48:48.839Z,15.43
2022-11-28T05:51:18.033Z,14.07
2022-11-28T05:53:48.123Z,13.87
2022-11-28T05:56:19.601Z,16.43
2022-11-28T05:58:47.505Z,16.73
2022-11-28T06:01:24.366Z,14.00
2022-11-28T06:04:00.088Z,15.00
2022-11-28T06:06:31.313Z,16.30
2022-11-28T06:08:59.898Z,13.63
2022-11-28T06:11:32.049Z,16.07
2022-11-28T06:14:03.161Z,18.43
2022-11-28T06:16:33.429Z,13.90
2022-11-28T06:19:06.031Z,14.17
2022-11-28T06:21:36.089Z,14.37
2022-11-28T06:24:06.434Z,13.23
2022-11-28T06:26:35.403Z,15.60
2022-11-28T06:29:02.395Z,13.63
2022-11-28T06:31:32.460Z,13.83
2022-11-28T06:34:00.513Z,11.70
2022-11-28T06:36:35.216Z,13.03
2022-11-28T06:39:06.494Z,11.97
2022-11-28T06:41:33.654Z,14.23
2022-11-28T06:44:03.757Z,12.23
2022-11-28T06:46:33.752Z,11.77
2022-11-28T06:49:02.691Z,12.93
2022-11-28T06:51:30.082Z,13.17
2022-11-28T06:54:00.102Z,14.23
2022-11-28T06:56:27.324Z,12.27
2022-11-28T06:59:00.931Z,10.73
2022-11-28T07:01:32.555Z,10.17
2022-11-28T07:04:02.263Z,10.60
2022-11-28T07:06:31.204Z,12.43
2022-11-28T07:09:01.257Z,14.07
2022-11-28T07:11:32.166Z,14.97
2022-11-28T07:14:03.144Z,11.67
2022-11-28T07:16:43.677Z,14.60
2022-11-28T07:19:13.773Z,14.30
2022-11-28T07:21:41.374Z,12.17
2022-11-28T07:24:08.837Z,14.47
2022-11-28T07:26:38.059Z,14.53
2022-11-28T07:29:07.065Z,13.40
2022-11-28T07:31:34.414Z,19.07
2022-11-28T07:34:03.762Z,15.10
2022-11-28T07:36:30.980Z,13.07
2022-11-28T07:39:03.830Z,15.07
2022-11-28T07:41:33.981Z,17.57
2022-11-28T07:44:02.906Z,11.93
2022-11-28T07:46:32.552Z,11.90
2022-11-28T07:48:59.835Z,15.47
2022-11-28T07:51:33.186Z,12.83
2022-11-28T07:54:04.243Z,16.53
2022-11-28T07:57:10.892Z,14.10
2022-11-28T07:59:26.034Z,13.83
2022-11-28T08:01:56.122Z,17.63
2022-11-28T08:04:23.226Z,18.07
2022-11-28T08:06:50.142Z,16.00
2022-11-28T08:09:18.113Z,17.77
2022-11-28T08:11:44.985Z,12.20
2022-11-28T08:14:14.473Z,17.17
2022-11-28T08:16:47.417Z,14.83
2022-11-28T08:19:14.407Z,8.70
2022-11-28T08:21:41.466Z,10.30
2022-11-28T08:24:11.587Z,11.83
2022-11-28T08:26:39.855Z,11.33
2022-11-28T08:29:07.815Z,15.37
2022-11-28T08:31:38.816Z,13.97
2022-11-28T08:34:10.785Z,15.70
2022-11-28T08:36:40.083Z,11.83
2022-11-28T08:39:24.449Z,13.63
2022-11-28T08:41:57.746Z,12.60
2022-11-28T08:44:30.190Z,14.77
2022-11-28T08:46:59.477Z,16.13
2022-11-28T08:49:26.618Z,12.77
2022-11-28T08:51:56.541Z,13.43
2022-11-28T08:54:26.629Z,16.90
2022-11-28T08:56:54.829Z,19.70
2022-11-28T08:59:25.261Z,14.00
2022-11-28T09:02:01.265Z,13.27
2022-11-28T09:04:28.880Z,18.13
2022-11-28T09:06:55.886Z,12.07
2022-11-28T09:09:22.976Z,15.37
2022-11-28T09:11:52.928Z,22.53
2022-11-28T09:14:22.962Z,22.37
2022-11-28T09:16:50.512Z,17.90
2022-11-28T09:19:18.495Z,12.43
2022-11-28T09:21:51.945Z,18.40
2022-11-28T09:24:23.591Z,13.33
2022-11-28T09:26:51.605Z,15.87
2022-11-28T09:29:24.669Z,16.20
2022-11-28T09:31:51.693Z,15.87
2022-11-28T09:34:18.764Z,10.73
2022-11-28T09:36:50.161Z,15.60
2022-11-28T09:39:19.337Z,10.63
2022-11-28T09:42:10.847Z,17.30
2022-11-28T09:44:55.545Z,12.53
2022-11-28T09:47:26.962Z,8.17
2022-11-28T09:50:20.985Z,12.90
2022-11-28T09:53:13.374Z,12.40
2022-11-28T09:55:50.197Z,14.27
2022-11-28T09:58:50.458Z,14.73
2022-11-28T10:01:19.548Z,14.87
2022-11-28T10:04:22.934Z,11.87
2022-11-28T10:07:08.532Z,12.40
2022-11-28T10:09:58.948Z,12.53
2022-11-28T10:13:10.204Z,13.90
2022-11-28T10:15:49.811Z,11.73
2022-11-28T10:18:28.758Z,17.80
2022-11-28T10:21:02.760Z,15.60
2022-11-28T10:23:44.103Z,11.33
2022-11-28T10:26:26.598Z,15.03
2022-11-28T10:29:00.005Z,15.83
2022-11-28T10:31:42.229Z,26.50
2022-11-28T10:34:28.438Z,14.30
2022-11-28T10:37:08.099Z,23.00
2022-11-28T10:39:44.866Z,15.87
2022-11-28T10:42:30.763Z,16.23
2022-11-28T10:45:33.557Z,17.17
2022-11-28T10:51:32.177Z,16.47
2022-11-28T10:54:30.002Z,32.17
2022-11-28T10:57:11.877Z,22.17
2022-11-28T11:00:02.176Z,15.20
2022-11-28T11:02:45.088Z,61.30
2022-11-28T11:05:18.626Z,14.23
2022-11-28T11:08:12.975Z,51.07
2022-11-28T11:10:49.216Z,29.00
2022-11-28T11:13:21.293Z,43.13
2022-11-28T11:16:05.830Z,25.87
2022-11-28T11:18:35.325Z,16.43
2022-11-28T11:21:35.116Z,20.33
2022-11-28T11:24:20.753Z,18.90
2022-11-28T11:26:51.868Z,17.33
2022-11-28T11:29:32.363Z,16.53
2022-11-28T11:32:06.211Z,19.00
2022-11-28T11:34:53.990Z,24.83
2022-11-28T11:37:36.275Z,18.90
2022-11-28T11:40:28.225Z,20.93
2022-11-28T11:43:00.862Z,25.00
2022-11-28T11:45:36.516Z,18.73
2022-11-28T11:48:04.543Z,17.57
2022-11-28T11:50:36.898Z,17.87
2022-11-28T11:53:10.395Z,18.00
2022-11-28T11:55:59.162Z,16.13
2022-11-28T11:58:51.642Z,16.07
2022-11-28T12:01:22.210Z,16.13
2022-11-28T12:03:55.360Z,14.67
2022-11-28T12:06:38.902Z,10.90
2022-11-28T12:09:43.870Z,14.27
2022-11-28T12:12:18.872Z,18.07
2022-11-28T12:14:48.851Z,14.30
2022-11-28T12:17:59.188Z,14.57
2022-11-28T12:20:30.138Z,11.90
2022-11-28T12:23:25.702Z,11.47
2022-11-28T12:25:55.605Z,13.03
2022-11-28T12:28:38.813Z,13.13
2022-11-28T12:31:18.029Z,15.27
2022-11-28T12:34:19.872Z,13.90
2022-11-28T12:36:58.109Z,14.27
2022-11-28T12:39:53.046Z,13.20
2022-11-28T12:42:46.207Z,17.17
2022-11-28T12:45:23.250Z,17.83
2022-11-28T12:48:30.899Z,17.80
2022-11-28T12:51:36.546Z,20.83
2022-11-28T12:54:11.367Z,26.03
2022-11-28T12:56:59.504Z,22.23
2022-11-28T12:59:34.089Z,23.40
2022-11-28T13:02:39.420Z,26.67
2022-11-28T13:05:35.702Z,30.00
2022-11-28T13:08:14.815Z,28.50
2022-11-28T13:10:44.513Z,30.23
2022-11-28T13:13:25.326Z,21.93
2022-11-28T13:16:27.480Z,21.40
2022-11-28T13:19:16.267Z,29.73
2022-11-28T13:22:07.023Z,22.73
2022-11-28T13:24:38.192Z,23.20
2022-11-28T13:27:32.674Z,23.37
2022-11-28T13:30:24.493Z,21.73
2022-11-28T13:33:29.379Z,22.17
2022-11-28T13:36:01.251Z,27.20
2022-11-28T13:39:12.785Z,24.57
2022-11-28T13:42:52.474Z,22.93
2022-11-28T13:45:09.087Z,27.40
2022-11-28T13:47:38.163Z,21.10
2022-11-28T13:50:25.537Z,20.23
2022-11-28T13:53:03.762Z,19.90
2022-11-28T13:55:39.743Z,21.00
2022-11-28T13:58:40.836Z,22.30
2022-11-28T14:01:08.762Z,23.63
2022-11-28T14:04:02.936Z,18.10
2022-11-28T14:06:59.074Z,21.17
2022-11-28T14:09:54.018Z,19.63
2022-11-28T14:12:28.400Z,18.53
2022-11-28T14:15:29.618Z,21.23
2022-11-28T14:18:31.513Z,20.77
2022-11-28T14:20:56.661Z,18.43
2022-11-28T14:23:41.642Z,20.63
2022-11-28T14:26:43.118Z,21.53
2022-11-28T14:29:27.677Z,17.17
2022-11-28T14:32:28.427Z,20.53
2022-11-28T14:34:50.841Z,23.40
2022-11-28T14:37:29.495Z,21.80
2022-11-28T14:40:03.295Z,21.83
2022-11-28T14:43:00.148Z,19.20
2022-11-28T14:45:43.666Z,17.67
2022-11-28T14:48:24.395Z,22.87
2022-11-28T14:51:00.826Z,18.83
2022-11-28T14:53:34.830Z,16.37
2022-11-28T14:56:28.452Z,18.43
2022-11-28T14:59:03.520Z,15.53
2022-11-28T15:01:51.625Z,19.40
2022-11-28T15:04:51.469Z,22.93
2022-11-28T15:07:36.303Z,25.07
2022-11-28T15:10:30.190Z,25.97
2022-11-28T15:13:12.196Z,23.13
2022-11-28T15:15:51.320Z,26.73
2022-11-28T15:18:20.176Z,24.50
2022-11-28T15:20:58.916Z,21.50
2022-11-28T15:23:40.650Z,23.50
2022-11-28T15:26:18.000Z,25.43
2022-11-28T15:28:46.101Z,28.10
2022-11-28T15:31:22.836Z,20.73
2022-11-28T15:33:53.037Z,26.43
2022-11-28T15:36:28.329Z,28.67
2022-11-28T15:38:56.995Z,22.03
2022-11-28T15:41:27.577Z,24.40
2022-11-28T15:43:56.335Z,21.77
2022-11-28T15:46:39.742Z,22.37
2022-11-28T15:49:33.637Z,26.83
2022-11-28T15:52:05.552Z,24.30
2022-11-28T15:54:36.734Z,24.80
2022-11-28T15:57:33.529Z,27.07
2022-11-28T16:00:03.379Z,18.73
2022-11-28T16:02:38.721Z,25.90
2022-11-28T16:05:21.878Z,25.67
2022-11-28T16:07:52.257Z,27.43
2022-11-28T16:10:37.092Z,26.70
2022-11-28T16:13:12.785Z,32.73
2022-11-28T16:15:40.077Z,29.87
2022-11-28T16:18:15.324Z,27.30
2022-11-28T16:20:44.638Z,29.73
2022-11-28T16:23:34.088Z,49.23
2022-11-28T16:26:18.088Z,36.27
2022-11-28T16:29:14.726Z,29.50
2022-11-28T16:31:44.611Z,27.20
2022-11-28T16:34:15.296Z,36.10
2022-11-28T16:36:45.896Z,28.60
2022-11-28T16:39:17.070Z,27.70
2022-11-28T16:42:13.233Z,28.00
2022-11-28T16:44:42.871Z,23.30
2022-11-28T16:47:30.074Z,29.20
2022-11-28T16:50:17.182Z,34.87
2022-11-28T16:52:55.978Z,31.17
2022-11-28T16:55:32.447Z,34.77
2022-11-28T16:58:12.975Z,30.37
2022-11-28T17:00:52.045Z,30.03
2022-11-28T17:03:45.333Z,25.60
2022-11-28T17:06:23.344Z,24.07
2022-11-28T17:08:51.874Z,20.97
2022-11-28T17:11:23.978Z,21.63
2022-11-28T17:13:57.262Z,17.50
2022-11-28T17:16:26.421Z,16.67
2022-11-28T17:18:56.933Z,15.53
2022-11-28T17:21:45.503Z,16.80
2022-11-28T17:24:19.577Z,17.17
2022-11-28T17:26:50.481Z,14.90
2022-11-28T17:29:20.707Z,21.57
2022-11-28T17:31:49.191Z,20.20
2022-11-28T17:34:22.708Z,19.47
2022-11-28T17:36:50.119Z,12.97
2022-11-28T17:39:20.254Z,16.13
2022-11-28T17:41:51.172Z,16.13
2022-11-28T17:44:23.303Z,16.93
2022-11-28T17:46:56.223Z,18.57
2022-11-28T17:49:25.309Z,23.63
2022-11-28T17:51:54.267Z,20.67
2022-11-28T17:54:23.402Z,16.50
2022-11-28T17:56:53.024Z,18.43
2022-11-28T17:59:24.003Z,18.17
2022-11-28T18:01:52.125Z,18.30
2022-11-28T18:04:19.541Z,24.67
2022-11-28T18:06:47.534Z,23.53
2022-11-28T18:09:17.533Z,23.57
2022-11-28T18:11:46.865Z,22.40
2022-11-28T18:14:19.685Z,28.83
2022-11-28T18:16:49.473Z,26.27
2022-11-28T18:19:19.433Z,26.97
2022-11-28T18:21:49.521Z,36.33
2022-11-28T18:24:16.467Z,34.10
2022-11-28T18:26:44.345Z,29.30
2022-11-28T18:29:12.425Z,29.10
2022-11-28T18:31:43.497Z,35.27
2022-11-28T18:34:12.514Z,24.83
2022-11-28T18:36:40.718Z,37.13
2022-11-28T18:39:13.611Z,26.77
2022-11-28T18:41:42.018Z,28.17
2022-11-28T18:44:12.142Z,34.37
2022-11-28T18:46:42.243Z,24.30
2022-11-28T18:49:16.706Z,23.27
2022-11-28T18:51:46.697Z,28.23
2022-11-28T18:54:19.277Z,29.00
2022-11-28T18:56:48.103Z,31.50
2022-11-28T18:59:15.041Z,26.33
2022-11-28T19:01:45.043Z,25.10
2022-11-28T19:04:15.653Z,24.67
2022-11-28T19:06:44.356Z,23.80
2022-11-28T19:09:13.940Z,24.13
2022-11-28T19:11:44.960Z,18.47
2022-11-28T19:14:16.846Z,19.33
2022-11-28T19:16:49.569Z,17.43
2022-11-28T19:19:17.424Z,19.63
2022-11-28T19:21:44.731Z,24.13
2022-11-28T19:24:12.991Z,29.67
2022-11-28T19:26:40.323Z,19.80
2022-11-28T19:29:08.390Z,18.27
2022-11-28T19:31:37.264Z,27.40
2022-11-28T19:34:17.516Z,25.03
2022-11-28T19:36:46.944Z,20.23
2022-11-28T19:39:20.679Z,33.17
2022-11-28T19:41:48.151Z,25.37
2022-11-28T19:44:15.819Z,25.87
2022-11-28T19:46:43.069Z,27.03
2022-11-28T19:49:21.522Z,24.30
2022-11-28T19:51:49.204Z,31.00
2022-11-28T19:54:19.724Z,25.57
2022-11-28T19:56:47.645Z,32.37
2022-11-28T19:59:14.710Z,32.10
2022-11-28T20:01:41.955Z,24.30
2022-11-28T20:04:09.223Z,24.97
2022-11-28T20:06:36.576Z,27.90
2022-11-28T20:09:08.888Z,22.47
2022-11-28T20:11:37.061Z,22.67
2022-11-28T20:14:11.113Z,24.83
2022-11-28T20:16:38.278Z,27.03
2022-11-28T20:19:06.337Z,25.57
2022-11-28T20:21:33.793Z,20.07
2022-11-28T20:24:04.775Z,21.33
2022-11-28T20:26:35.955Z,29.60
2022-11-28T20:29:02.910Z,35.23
2022-11-28T20:31:34.019Z,29.17
2022-11-28T20:34:02.152Z,36.37
2022-11-28T20:36:31.009Z,35.40
2022-11-28T20:38:58.832Z,34.50
2022-11-28T20:41:27.277Z,33.33
2022-11-28T20:43:54.854Z,36.73
2022-11-28T20:46:24.127Z,48.97
2022-11-28T20:48:51.306Z,32.17
2022-11-28T20:51:25.016Z,34.10
2022-11-28T20:53:52.909Z,29.90
2022-11-28T20:56:22.632Z,31.50
2022-11-28T20:58:50.398Z,32.87
2022-11-28T21:01:23.680Z,28.23
2022-11-28T21:03:51.432Z,28.53
2022-11-28T21:06:19.617Z,30.93
2022-11-28T21:08:46.586Z,32.30
2022-11-28T21:11:36.600Z,28.13
2022-11-28T21:14:03.460Z,31.20
2022-11-28T21:16:32.262Z,43.60
2022-11-28T21:19:07.749Z,32.63
2022-11-28T21:21:36.722Z,57.70
2022-11-28T21:24:06.656Z,49.17
2022-11-28T21:26:40.466Z,45.37
2022-11-28T21:29:09.289Z,34.70
2022-11-28T21:31:40.276Z,40.60
2022-11-28T21:34:07.266Z,41.30
2022-11-28T21:36:34.363Z,44.83
2022-11-28T21:39:01.539Z,39.13
2022-11-28T21:41:31.535Z,35.37
2022-11-28T21:43:59.407Z,34.30
2022-11-28T21:46:27.187Z,31.30
2022-11-28T21:48:54.132Z,32.37
2022-11-28T21:51:23.229Z,31.00
2022-11-28T21:53:50.812Z,26.83
2022-11-28T21:56:18.075Z,28.77
2022-11-28T21:58:44.922Z,28.30
2022-11-28T22:01:13.590Z,26.20
2022-11-28T22:03:41.909Z,23.57
2022-11-28T22:06:22.542Z,27.50
2022-11-28T22:08:49.797Z,28.63
2022-11-28T22:11:17.364Z,24.47
2022-11-28T22:13:46.057Z,31.97
2022-11-28T22:16:18.535Z,32.00
2022-11-28T22:18:47.151Z,33.53
2022-11-28T22:24:03.316Z,36.13
2022-11-28T22:26:30.245Z,29.33
2022-11-28T22:28:58.842Z,29.30
2022-11-28T22:31:25.931Z,35.83
2022-11-28T22:33:53.101Z,33.10
2022-11-28T22:36:21.618Z,30.77
2022-11-28T22:38:50.231Z,28.27
2022-11-28T22:41:27.610Z,32.77
2022-11-28T22:43:57.195Z,24.53
2022-11-28T22:46:24.317Z,26.30
2022-11-28T22:48:52.130Z,23.00
2022-11-28T22:51:23.194Z,33.00
2022-11-28T22:53:55.093Z,26.73
2022-11-28T22:56:22.327Z,22.90
2022-11-28T22:58:49.531Z,23.70
2022-11-28T23:01:20.133Z,25.10
2022-11-28T23:03:47.370Z,23.80
2022-11-28T23:06:17.692Z,27.03
2022-11-28T23:08:45.485Z,27.80
2022-11-28T23:11:15.418Z,22.47
2022-11-28T23:13:43.592Z,23.23
2022-11-28T23:16:13.508Z,25.17
2022-11-28T23:18:41.426Z,23.90
2022-11-28T23:21:08.746Z,22.33
2022-11-28T23:23:36.546Z,20.90
2022-11-28T23:26:10.030Z,24.87
2022-11-28T23:28:37.781Z,29.00
2022-11-28T23:31:05.797Z,26.37
2022-11-28T23:33:32.903Z,30.37
2022-11-28T23:35:59.941Z,16.53
2022-11-28T23:38:27.908Z,24.70
2022-11-28T23:40:56.628Z,27.37
2022-11-28T23:43:23.765Z,30.03
2022-11-28T23:45:50.701Z,42.90
2022-11-28T23:48:18.542Z,30.60
2022-11-28T23:50:45.498Z,57.83
2022-11-28T23:53:12.376Z,103.27
2022-11-28T23:55:39.314Z,113.10
2022-11-28T23:58:06.490Z,58.57
